Time;durP1;ratioP1;P1;durP2;ratioP2;P2;SDS_P1;SDS_P2;PMS_P1;PMS_P2;Temp;Humidity;BMP_temperature;BMP_pressure;BME280_temperature;BME280_humidity;BME280_pressure;Samples;Min_cycle;Max_cycle;Signal;HPM_P1;HPM_P2
2022/09/30 00:00:34;;;;;;;;;;;14.30;99.90;;;;;;4937759;29;19922;-72
2022/09/30 00:03:01;;;;;;;;;;;14.30;99.90;;;;;;4937889;29;20021;-71
2022/09/30 00:05:27;;;;;;;;;;;14.20;99.90;;;;;;4937781;29;20425;-71
2022/09/30 00:07:54;;;;;;;;;;;14.20;99.90;;;;;;4937571;29;19918;-71
2022/09/30 00:10:21;;;;;;;;;;;14.30;99.90;;;;;;4937641;29;19914;-72
2022/09/30 00:12:48;;;;;;;;;;;14.40;99.90;;;;;;4937647;29;20374;-72
2022/09/30 00:15:14;;;;;;;;;;;14.50;99.90;;;;;;4937369;29;20397;-71
2022/09/30 00:17:41;;;;;;;;;;;14.40;99.90;;;;;;4937190;29;20315;-69
2022/09/30 00:20:09;;;;;;;;;;;14.40;99.90;;;;;;4937498;29;19935;-72
2022/09/30 00:22:35;;;;;;;;;;;14.40;99.90;;;;;;4936624;29;19972;-72
2022/09/30 00:25:22;;;;;;;;;;;14.40;99.90;;;;;;4936463;29;19918;-69
2022/09/30 00:27:49;;;;;;;;;;;14.60;99.90;;;;;;4936794;29;19914;-72
2022/09/30 00:30:15;;;;;;;;;;;14.70;99.90;;;;;;4937149;29;19922;-71
2022/09/30 00:32:42;;;;;;;;;;;14.60;99.90;;;;;;4937038;29;19917;-71
2022/09/30 00:35:08;;;;;;;;;;;14.70;99.90;;;;;;4937270;29;19966;-69
2022/09/30 00:37:35;;;;;;;;;;;14.70;99.90;;;;;;4937013;29;19923;-69
2022/09/30 00:40:02;;;;;;;;;;;14.70;99.90;;;;;;4937109;29;19918;-68
2022/09/30 00:42:29;;;;;;;;;;;15.00;99.90;;;;;;4937194;29;19911;-72
2022/09/30 00:45:02;;;;;;;;;;;15.30;99.90;;;;;;4936546;29;19919;-70
2022/09/30 00:47:42;;;;;;;;;;;15.30;99.90;;;;;;4936886;29;19915;-72
2022/09/30 00:50:11;;;;;;;;;;;15.30;99.90;;;;;;4936931;29;19953;-67
2022/09/30 00:52:38;;;;;;;;;;;15.30;99.90;;;;;;4937015;29;19922;-73
2022/09/30 00:55:07;;;;;;;;;;;15.30;99.90;;;;;;4936790;29;19915;-72
2022/09/30 00:57:34;;;;;;;;;;;15.20;99.90;;;;;;4936562;29;19918;-72
2022/09/30 01:00:01;;;;;;;;;;;15.20;99.90;;;;;;4936670;29;19918;-70
2022/09/30 01:02:28;;;;;;;;;;;15.20;99.90;;;;;;4936821;29;19923;-70
2022/09/30 01:04:55;;;;;;;;;;;15.20;99.90;;;;;;4936581;29;20001;-69
2022/09/30 01:07:22;;;;;;;;;;;15.30;99.90;;;;;;4936279;29;19961;-72
2022/09/30 01:09:50;;;;;;;;;;;15.40;99.90;;;;;;4936777;29;19915;-73
2022/09/30 01:12:19;;;;;;;;;;;15.40;99.90;;;;;;4936525;29;19915;-73
2022/09/30 01:14:50;;;;;;;;;;;15.30;99.90;;;;;;4936552;29;19918;-72
2022/09/30 01:17:16;;;;;;;;;;;14.80;99.90;;;;;;4936162;29;20350;-72
2022/09/30 01:20:06;;;;;;;;;;;14.70;99.90;;;;;;4936552;29;20047;-72
2022/09/30 01:22:53;;;;;;;;;;;14.70;99.90;;;;;;4936527;29;19915;-70
2022/09/30 01:25:23;;;;;;;;;;;14.90;99.90;;;;;;4936297;29;20021;-72
2022/09/30 01:27:50;;;;;;;;;;;14.90;99.90;;;;;;4936078;29;20362;-70
2022/09/30 01:30:35;;;;;;;;;;;15.00;99.90;;;;;;4936391;29;20434;-72
2022/09/30 01:33:05;;;;;;;;;;;15.10;99.90;;;;;;4935014;29;19937;-73
2022/09/30 01:35:41;;;;;;;;;;;15.20;99.90;;;;;;4936251;29;19934;-71
2022/09/30 01:38:20;;;;;;;;;;;15.30;99.90;;;;;;4935426;29;19923;-72
2022/09/30 01:41:00;;;;;;;;;;;15.30;99.90;;;;;;4936031;29;19911;-72
2022/09/30 01:43:35;;;;;;;;;;;15.30;99.90;;;;;;4935709;29;19922;-73
2022/09/30 01:46:07;;;;;;;;;;;15.30;99.90;;;;;;4935977;29;19970;-71
2022/09/30 01:48:52;;;;;;;;;;;15.20;99.90;;;;;;4935594;29;20347;-73
2022/09/30 01:51:39;;;;;;;;;;;15.10;99.90;;;;;;4935757;29;20360;-72
2022/09/30 01:54:26;;;;;;;;;;;15.20;99.90;;;;;;4935464;29;19914;-68
2022/09/30 01:57:02;;;;;;;;;;;15.30;99.90;;;;;;4930665;29;19954;-72
2022/09/30 01:59:29;;;;;;;;;;;15.10;99.90;;;;;;4935861;29;20389;-74
2022/09/30 02:02:01;;;;;;;;;;;15.10;99.90;;;;;;4935702;29;19926;-71
2022/09/30 02:04:33;;;;;;;;;;;15.20;99.90;;;;;;4935585;29;19981;-71
2022/09/30 02:07:02;;;;;;;;;;;15.10;99.90;;;;;;4935413;29;19974;-72
2022/09/30 02:09:38;;;;;;;;;;;15.00;99.90;;;;;;4935523;29;19911;-69
2022/09/30 02:12:06;;;;;;;;;;;15.00;99.90;;;;;;4935352;29;19969;-70
2022/09/30 02:14:36;;;;;;;;;;;14.90;99.90;;;;;;4935502;29;19915;-69
2022/09/30 02:17:07;;;;;;;;;;;14.80;99.90;;;;;;4934846;29;19918;-70
2022/09/30 02:19:53;;;;;;;;;;;14.60;99.90;;;;;;4935460;29;19993;-70
2022/09/30 02:22:25;;;;;;;;;;;14.50;99.90;;;;;;4935238;29;20330;-68
2022/09/30 02:24:56;;;;;;;;;;;14.50;99.90;;;;;;4935370;29;20018;-72
2022/09/30 02:27:24;;;;;;;;;;;14.50;99.90;;;;;;4933771;29;19933;-69
2022/09/30 02:29:54;;;;;;;;;;;14.60;99.90;;;;;;4934973;29;20259;-69
2022/09/30 02:32:26;;;;;;;;;;;14.70;99.90;;;;;;4935181;29;20370;-69
2022/09/30 02:35:00;;;;;;;;;;;14.80;99.90;;;;;;4934777;29;19981;-69
2022/09/30 02:37:29;;;;;;;;;;;14.90;99.90;;;;;;4934715;29;19965;-68
2022/09/30 02:40:09;;;;;;;;;;;15.00;99.90;;;;;;4935061;29;19915;-67
2022/09/30 02:42:37;;;;;;;;;;;15.20;99.90;;;;;;4934924;29;19966;-67
2022/09/30 02:45:07;;;;;;;;;;;15.60;99.90;;;;;;4934794;29;19926;-68
2022/09/30 02:47:45;;;;;;;;;;;15.70;99.90;;;;;;4935002;29;19918;-68
2022/09/30 02:50:30;;;;;;;;;;;15.30;99.90;;;;;;4934986;29;19915;-70
2022/09/30 02:53:18;;;;;;;;;;;15.10;99.90;;;;;;4935110;29;19938;-70
2022/09/30 02:55:53;;;;;;;;;;;14.80;99.90;;;;;;4934717;29;19921;-68
2022/09/30 02:58:21;;;;;;;;;;;14.60;99.90;;;;;;4934661;29;20255;-67
2022/09/30 03:00:48;;;;;;;;;;;14.70;99.90;;;;;;4934643;29;19922;-70
2022/09/30 03:03:18;;;;;;;;;;;14.80;99.90;;;;;;4934721;29;19915;-67
2022/09/30 03:05:44;;;;;;;;;;;14.90;99.90;;;;;;4934634;29;19930;-67
2022/09/30 03:08:11;;;;;;;;;;;15.00;99.90;;;;;;4935365;29;20409;-67
2022/09/30 03:10:38;;;;;;;;;;;14.90;99.90;;;;;;4938620;29;20006;-67
2022/09/30 03:13:23;;;;;;;;;;;15.00;99.90;;;;;;4938441;29;20330;-67
2022/09/30 03:16:04;;;;;;;;;;;14.80;99.90;;;;;;4938673;29;20005;-68
2022/09/30 03:18:31;;;;;;;;;;;14.70;99.90;;;;;;4938733;29;19982;-67
2022/09/30 03:21:20;;;;;;;;;;;14.60;99.90;;;;;;4938506;29;19910;-67
2022/09/30 03:23:59;;;;;;;;;;;14.50;99.90;;;;;;4938410;29;19914;-67
2022/09/30 03:26:36;;;;;;;;;;;14.50;99.90;;;;;;4938014;29;20334;-70
2022/09/30 03:29:08;;;;;;;;;;;14.40;99.90;;;;;;4938407;29;19958;-66
2022/09/30 03:31:41;;;;;;;;;;;14.40;99.90;;;;;;4938446;29;19918;-66
2022/09/30 03:34:33;;;;;;;;;;;14.40;99.90;;;;;;4938333;29;20371;-67
2022/09/30 03:37:16;;;;;;;;;;;14.50;99.90;;;;;;4934667;29;19923;-67
2022/09/30 03:39:51;;;;;;;;;;;14.50;99.90;;;;;;4937872;29;19911;-67
2022/09/30 03:42:37;;;;;;;;;;;14.70;99.90;;;;;;4938462;29;19911;-68
2022/09/30 03:45:23;;;;;;;;;;;14.80;99.90;;;;;;4937604;29;19926;-69
2022/09/30 03:47:52;;;;;;;;;;;14.60;99.90;;;;;;4937569;29;20305;-66
2022/09/30 03:50:21;;;;;;;;;;;14.50;99.90;;;;;;4937746;29;19922;-67
2022/09/30 03:52:48;;;;;;;;;;;14.70;99.90;;;;;;4937930;29;19911;-67
2022/09/30 03:55:16;;;;;;;;;;;14.90;99.90;;;;;;4937544;29;19915;-68
2022/09/30 03:57:43;;;;;;;;;;;15.20;99.90;;;;;;4937576;29;19918;-71
2022/09/30 04:00:11;;;;;;;;;;;15.10;99.90;;;;;;4937659;29;19915;-68
2022/09/30 04:02:38;;;;;;;;;;;15.10;99.90;;;;;;4937688;29;19911;-68
2022/09/30 04:05:05;;;;;;;;;;;15.00;99.90;;;;;;4937432;29;19929;-72
2022/09/30 04:07:32;;;;;;;;;;;15.10;99.90;;;;;;4937345;29;20370;-73
2022/09/30 04:09:58;;;;;;;;;;;15.20;99.90;;;;;;4937410;29;20362;-70
2022/09/30 04:12:25;;;;;;;;;;;15.30;99.90;;;;;;4937580;29;20270;-72
2022/09/30 04:14:52;;;;;;;;;;;15.40;99.90;;;;;;4937540;29;19926;-70
2022/09/30 04:17:19;;;;;;;;;;;15.50;99.90;;;;;;4936933;29;19911;-72
2022/09/30 04:19:45;;;;;;;;;;;15.40;99.90;;;;;;4936680;29;20366;-71
2022/09/30 04:22:12;;;;;;;;;;;15.30;99.90;;;;;;4937638;29;19978;-71
2022/09/30 04:24:38;;;;;;;;;;;15.40;99.90;;;;;;4937280;29;20331;-72
2022/09/30 04:27:05;;;;;;;;;;;15.50;99.90;;;;;;4937007;29;19911;-72
2022/09/30 04:29:32;;;;;;;;;;;15.70;99.90;;;;;;4937393;29;19981;-69
2022/09/30 04:31:59;;;;;;;;;;;16.00;99.90;;;;;;4937306;29;19923;-71
2022/09/30 04:34:26;;;;;;;;;;;16.30;99.90;;;;;;4937353;29;20310;-69
2022/09/30 04:36:52;;;;;;;;;;;16.40;99.90;;;;;;4936265;29;20370;-70
2022/09/30 04:39:19;;;;;;;;;;;16.40;99.90;;;;;;4935616;29;19911;-70
2022/09/30 04:41:46;;;;;;;;;;;16.50;99.90;;;;;;4937016;29;19922;-67
2022/09/30 04:44:12;;;;;;;;;;;16.60;99.90;;;;;;4938082;29;19923;-67
2022/09/30 04:46:39;;;;;;;;;;;16.70;99.90;;;;;;4937100;29;20385;-69
2022/09/30 04:49:07;;;;;;;;;;;16.90;99.90;;;;;;4937752;29;19911;-68
2022/09/30 04:51:34;;;;;;;;;;;16.80;99.90;;;;;;4937541;29;20421;-67
2022/09/30 04:54:01;;;;;;;;;;;16.80;99.90;;;;;;4938625;29;20271;-69
2022/09/30 04:56:28;;;;;;;;;;;16.90;99.90;;;;;;4937366;29;20346;-69
2022/09/30 04:58:55;;;;;;;;;;;17.00;99.90;;;;;;4937723;29;19958;-68
2022/09/30 05:01:22;;;;;;;;;;;16.90;99.90;;;;;;4936427;29;19927;-71
2022/09/30 05:03:49;;;;;;;;;;;16.90;99.90;;;;;;4936665;29;19921;-72
2022/09/30 05:06:16;;;;;;;;;;;16.90;99.90;;;;;;4936406;29;19921;-71
2022/09/30 05:08:43;;;;;;;;;;;16.90;99.90;;;;;;4936712;29;19914;-72
2022/09/30 05:11:10;;;;;;;;;;;16.80;99.90;;;;;;4936461;29;19931;-69
2022/09/30 05:13:38;;;;;;;;;;;16.80;99.90;;;;;;4935295;29;20274;-71
2022/09/30 05:16:06;;;;;;;;;;;16.80;99.90;;;;;;4936271;29;20371;-72
2022/09/30 05:18:35;;;;;;;;;;;16.80;99.90;;;;;;4936448;29;19911;-72
2022/09/30 05:21:03;;;;;;;;;;;16.70;99.90;;;;;;4936171;29;19917;-71
2022/09/30 05:23:31;;;;;;;;;;;16.70;99.90;;;;;;4936146;29;19911;-72
2022/09/30 05:25:58;;;;;;;;;;;16.70;99.90;;;;;;4935543;29;19921;-73
2022/09/30 05:28:25;;;;;;;;;;;16.70;99.90;;;;;;4934602;29;19929;-68
2022/09/30 05:30:59;;;;;;;;;;;16.60;99.90;;;;;;4935785;29;19938;-72
2022/09/30 05:33:28;;;;;;;;;;;16.40;99.90;;;;;;4935995;29;19917;-71
2022/09/30 05:35:58;;;;;;;;;;;16.20;99.90;;;;;;4935465;29;19918;-72
2022/09/30 05:38:24;;;;;;;;;;;16.20;99.90;;;;;;4934958;29;19918;-73
2022/09/30 05:40:51;;;;;;;;;;;16.30;99.90;;;;;;4935620;29;19911;-72
2022/09/30 05:43:18;;;;;;;;;;;16.30;99.90;;;;;;4935782;29;20306;-70
2022/09/30 05:45:54;;;;;;;;;;;16.30;99.90;;;;;;4935948;29;19923;-69
2022/09/30 05:48:22;;;;;;;;;;;16.20;99.90;;;;;;4935923;29;19911;-72
2022/09/30 05:50:49;;;;;;;;;;;16.30;99.90;;;;;;4936060;29;19957;-71
2022/09/30 05:53:17;;;;;;;;;;;16.20;99.90;;;;;;4934567;29;20337;-71
2022/09/30 05:55:47;;;;;;;;;;;16.10;99.90;;;;;;4935325;29;19925;-67
2022/09/30 05:58:14;;;;;;;;;;;16.00;99.90;;;;;;4935458;29;20032;-73
2022/09/30 06:00:42;;;;;;;;;;;15.80;99.90;;;;;;4935538;29;19969;-71
2022/09/30 06:03:09;;;;;;;;;;;15.70;99.90;;;;;;4935464;29;19919;-68
2022/09/30 06:05:36;;;;;;;;;;;15.70;99.90;;;;;;4935570;29;20008;-68
2022/09/30 06:08:04;;;;;;;;;;;15.70;99.90;;;;;;4934362;29;20041;-73
2022/09/30 06:10:31;;;;;;;;;;;15.80;99.90;;;;;;4935126;29;19921;-70
2022/09/30 06:12:58;;;;;;;;;;;15.80;99.90;;;;;;4935503;29;20387;-71
2022/09/30 06:15:25;;;;;;;;;;;15.80;99.90;;;;;;4935229;29;19911;-73
2022/09/30 06:17:53;;;;;;;;;;;15.70;99.90;;;;;;4935030;29;19918;-73
2022/09/30 06:20:19;;;;;;;;;;;15.70;99.90;;;;;;4935435;29;20293;-73
2022/09/30 06:22:46;;;;;;;;;;;15.70;99.90;;;;;;4934441;29;20426;-73
2022/09/30 06:25:13;;;;;;;;;;;15.60;99.90;;;;;;4934559;29;19946;-68
2022/09/30 06:27:43;;;;;;;;;;;15.60;99.90;;;;;;4934906;29;19911;-70
2022/09/30 06:30:10;;;;;;;;;;;15.50;99.90;;;;;;4935313;29;19978;-69
2022/09/30 06:32:36;;;;;;;;;;;15.50;99.90;;;;;;4935147;29;19957;-72
2022/09/30 06:35:03;;;;;;;;;;;15.50;99.90;;;;;;4935142;29;19910;-71
2022/09/30 06:37:30;;;;;;;;;;;15.20;99.90;;;;;;4921674;29;20442;-71
2022/09/30 06:39:56;;;;;;;;;;;15.20;99.90;;;;;;4915640;29;19911;-68
2022/09/30 06:42:23;;;;;;;;;;;15.10;99.90;;;;;;4916095;29;20382;-68
2022/09/30 06:44:50;;;;;;;;;;;15.00;99.90;;;;;;4915661;29;19923;-69
2022/09/30 06:47:17;;;;;;;;;;;14.90;99.90;;;;;;4915522;29;20302;-70
2022/09/30 06:49:44;;;;;;;;;;;14.80;99.90;;;;;;4915933;29;20286;-71
2022/09/30 06:52:11;;;;;;;;;;;14.80;99.90;;;;;;4912743;29;20287;-67
2022/09/30 06:54:40;;;;;;;;;;;14.80;99.90;;;;;;4912680;29;20002;-70
2022/09/30 06:57:07;;;;;;;;;;;14.80;99.90;;;;;;4913727;29;19915;-71
2022/09/30 06:59:33;;;;;;;;;;;14.70;99.90;;;;;;4927174;29;19946;-70
2022/09/30 07:02:00;;;;;;;;;;;14.70;99.90;;;;;;4933280;29;20001;-71
2022/09/30 07:04:27;;;;;;;;;;;14.60;99.90;;;;;;4932359;29;20317;-70
2022/09/30 07:06:54;;;;;;;;;;;14.50;99.90;;;;;;4932312;29;19911;-69
2022/09/30 07:09:22;;;;;;;;;;;14.50;99.90;;;;;;4932503;29;19919;-67
2022/09/30 07:11:48;;;;;;;;;;;14.50;99.90;;;;;;4932608;29;19922;-71
2022/09/30 07:14:15;;;;;;;;;;;14.50;99.90;;;;;;4932540;29;19938;-72
2022/09/30 07:16:43;;;;;;;;;;;14.50;99.90;;;;;;4932352;29;19946;-68
2022/09/30 07:19:10;;;;;;;;;;;14.60;99.90;;;;;;4932212;29;20366;-69
2022/09/30 07:21:36;;;;;;;;;;;14.50;99.90;;;;;;4932779;29;19914;-68
2022/09/30 07:24:04;;;;;;;;;;;14.50;99.90;;;;;;4932405;29;19954;-68
2022/09/30 07:26:31;;;;;;;;;;;14.50;99.90;;;;;;4932384;29;19962;-71
2022/09/30 07:28:58;;;;;;;;;;;14.50;99.90;;;;;;4932702;29;19911;-69
2022/09/30 07:31:25;;;;;;;;;;;14.60;99.90;;;;;;4931931;29;19941;-68
2022/09/30 07:33:52;;;;;;;;;;;14.50;99.90;;;;;;4932516;29;19918;-70
2022/09/30 07:36:23;;;;;;;;;;;14.50;99.90;;;;;;4932270;29;20005;-69
2022/09/30 07:38:50;;;;;;;;;;;14.40;99.90;;;;;;4932687;29;20013;-67
2022/09/30 07:41:23;;;;;;;;;;;14.30;99.90;;;;;;4931383;29;19919;-72
2022/09/30 07:43:50;;;;;;;;;;;14.30;99.90;;;;;;4931199;29;19923;-71
2022/09/30 07:46:23;;;;;;;;;;;14.30;99.90;;;;;;4932265;29;19914;-70
2022/09/30 07:48:51;;;;;;;;;;;14.40;99.90;;;;;;4932271;29;19911;-70
2022/09/30 07:51:19;;;;;;;;;;;14.30;99.90;;;;;;4931209;29;19918;-69
2022/09/30 07:53:48;;;;;;;;;;;14.20;99.90;;;;;;4931699;29;20362;-72
2022/09/30 07:56:15;;;;;;;;;;;14.20;99.90;;;;;;4934171;29;19970;-69
2022/09/30 07:58:42;;;;;;;;;;;14.20;99.90;;;;;;4936101;29;20389;-70
2022/09/30 08:01:09;;;;;;;;;;;14.30;99.90;;;;;;4934435;29;19927;-69
2022/09/30 08:03:40;;;;;;;;;;;14.30;99.90;;;;;;4935799;29;19919;-69
2022/09/30 08:06:08;;;;;;;;;;;14.30;99.90;;;;;;4935622;29;19919;-69
2022/09/30 08:08:35;;;;;;;;;;;14.30;99.90;;;;;;4935625;29;20612;-69
2022/09/30 08:11:02;;;;;;;;;;;14.40;99.90;;;;;;4935149;29;19922;-69
2022/09/30 08:13:29;;;;;;;;;;;14.30;99.90;;;;;;4935541;29;19994;-67
2022/09/30 08:15:56;;;;;;;;;;;14.30;99.90;;;;;;4935289;29;20025;-69
2022/09/30 08:18:23;;;;;;;;;;;14.10;99.90;;;;;;4934731;29;19911;-70
2022/09/30 08:20:49;;;;;;;;;;;14.10;99.90;;;;;;4916909;29;19962;-69
2022/09/30 08:23:16;;;;;;;;;;;14.00;99.90;;;;;;4916411;29;20469;-70
2022/09/30 08:25:43;;;;;;;;;;;14.00;99.90;;;;;;4916146;29;19943;-70
2022/09/30 08:28:10;;;;;;;;;;;13.90;99.90;;;;;;4931773;29;19911;-69
2022/09/30 08:30:38;;;;;;;;;;;13.80;99.90;;;;;;4935085;29;20195;-69
2022/09/30 08:33:05;;;;;;;;;;;13.80;99.90;;;;;;4934424;29;20318;-70
2022/09/30 08:35:31;;;;;;;;;;;13.70;99.90;;;;;;4934963;29;20442;-69
2022/09/30 08:37:58;;;;;;;;;;;13.60;99.90;;;;;;4935238;29;19911;-71
2022/09/30 08:40:26;;;;;;;;;;;13.60;99.90;;;;;;4934747;29;19925;-70
2022/09/30 08:43:10;;;;;;;;;;;13.50;99.90;;;;;;4934883;29;19926;-68
2022/09/30 08:45:39;;;;;;;;;;;13.60;99.90;;;;;;4934300;29;20021;-68
2022/09/30 08:48:06;;;;;;;;;;;13.70;99.90;;;;;;4934852;29;20445;-73
2022/09/30 08:50:51;;;;;;;;;;;13.80;99.90;;;;;;4935134;29;19915;-72
2022/09/30 08:53:24;;;;;;;;;;;13.80;99.90;;;;;;4935206;29;19911;-71
2022/09/30 08:55:55;;;;;;;;;;;13.90;99.90;;;;;;4935117;29;19923;-69
2022/09/30 08:58:31;;;;;;;;;;;13.90;99.90;;;;;;4934824;29;20382;-68
2022/09/30 09:01:17;;;;;;;;;;;13.90;99.90;;;;;;4935039;29;19927;-69
2022/09/30 09:03:44;;;;;;;;;;;13.90;99.90;;;;;;4934883;29;19946;-70
2022/09/30 09:06:29;;;;;;;;;;;13.80;99.90;;;;;;4934881;29;20323;-68
2022/09/30 09:08:58;;;;;;;;;;;13.80;99.90;;;;;;4936624;29;19950;-65
2022/09/30 09:11:48;;;;;;;;;;;13.80;99.90;;;;;;4938995;29;19946;-72
2022/09/30 09:14:18;;;;;;;;;;;13.70;99.90;;;;;;4938354;29;19915;-71
2022/09/30 09:16:59;;;;;;;;;;;13.80;99.90;;;;;;4937996;29;20727;-73
2022/09/30 09:19:30;;;;;;;;;;;13.80;99.90;;;;;;4937816;29;19919;-71
2022/09/30 09:22:00;;;;;;;;;;;13.90;99.90;;;;;;4937045;29;19915;-68
2022/09/30 09:24:29;;;;;;;;;;;13.90;99.90;;;;;;4936525;29;19957;-67
2022/09/30 09:26:57;;;;;;;;;;;13.90;99.90;;;;;;4936563;29;19915;-68
2022/09/30 09:29:27;;;;;;;;;;;14.00;99.90;;;;;;4936660;29;19915;-68
2022/09/30 09:31:54;;;;;;;;;;;14.00;99.90;;;;;;4936441;29;19934;-69
2022/09/30 09:34:23;;;;;;;;;;;14.00;99.90;;;;;;4936312;29;19915;-68
2022/09/30 09:36:52;;;;;;;;;;;14.00;99.90;;;;;;4935819;29;19922;-71
2022/09/30 09:39:22;;;;;;;;;;;14.00;99.90;;;;;;4935939;29;19911;-71
2022/09/30 09:41:58;;;;;;;;;;;13.90;99.90;;;;;;4936146;29;20009;-72
2022/09/30 09:44:25;;;;;;;;;;;13.90;99.90;;;;;;4936053;29;20354;-69
2022/09/30 09:47:12;;;;;;;;;;;13.80;99.90;;;;;;4935629;29;19911;-71
2022/09/30 09:49:40;;;;;;;;;;;13.90;99.90;;;;;;4935891;29;19922;-71
2022/09/30 09:52:12;;;;;;;;;;;13.90;99.90;;;;;;4936097;29;19914;-72
2022/09/30 09:54:44;;;;;;;;;;;14.00;99.90;;;;;;4935750;29;20005;-71
2022/09/30 09:57:12;;;;;;;;;;;14.10;99.90;;;;;;4935462;29;19922;-69
2022/09/30 09:59:54;;;;;;;;;;;14.10;99.90;;;;;;4935778;29;19911;-72
2022/09/30 10:02:23;;;;;;;;;;;14.30;99.90;;;;;;4935795;29;19927;-67
2022/09/30 10:04:58;;;;;;;;;;;14.30;99.90;;;;;;4935427;29;20322;-70
2022/09/30 10:07:27;;;;;;;;;;;14.40;99.90;;;;;;4935163;29;20005;-71
2022/09/30 10:10:11;;;;;;;;;;;14.50;99.90;;;;;;4934187;29;19933;-68
2022/09/30 10:12:40;;;;;;;;;;;14.50;99.90;;;;;;4935584;29;19997;-70
2022/09/30 10:15:23;;;;;;;;;;;14.60;99.90;;;;;;4935271;29;19930;-70
2022/09/30 10:17:51;;;;;;;;;;;14.60;99.90;;;;;;4934682;29;19911;-72
2022/09/30 10:20:27;;;;;;;;;;;14.60;99.90;;;;;;4920214;29;19998;-71
2022/09/30 10:23:01;;;;;;;;;;;14.60;99.90;;;;;;4916462;29;20015;-68
2022/09/30 10:25:28;;;;;;;;;;;14.60;99.90;;;;;;4915892;29;19919;-68
2022/09/30 10:27:54;;;;;;;;;;;14.60;99.90;;;;;;4916423;29;20562;-70
2022/09/30 10:30:39;;;;;;;;;;;14.60;99.90;;;;;;4915911;29;19911;-70
2022/09/30 10:33:15;;;;;;;;;;;14.70;99.90;;;;;;4916280;29;19915;-67
2022/09/30 10:36:01;;;;;;;;;;;14.60;99.90;;;;;;4915987;29;19915;-68
2022/09/30 10:38:28;;;;;;;;;;;14.70;99.90;;;;;;4916101;29;19912;-70
2022/09/30 10:40:55;;;;;;;;;;;14.70;99.90;;;;;;4916123;29;19919;-67
2022/09/30 10:43:28;;;;;;;;;;;14.60;99.90;;;;;;4914593;29;19911;-68
2022/09/30 10:45:54;;;;;;;;;;;14.60;99.90;;;;;;4915184;29;20010;-67
2022/09/30 10:48:24;;;;;;;;;;;14.60;99.90;;;;;;4915910;29;20286;-67
2022/09/30 10:50:55;;;;;;;;;;;14.60;99.90;;;;;;4916120;29;20297;-67
2022/09/30 10:53:28;;;;;;;;;;;14.60;99.90;;;;;;4920310;29;20297;-68
2022/09/30 10:55:56;;;;;;;;;;;14.60;99.90;;;;;;4933860;29;19983;-67
2022/09/30 10:58:46;;;;;;;;;;;14.60;99.90;;;;;;4934803;29;19966;-67
2022/09/30 11:01:21;;;;;;;;;;;14.60;99.90;;;;;;4934411;29;20401;-67
2022/09/30 11:04:04;;;;;;;;;;;14.70;99.90;;;;;;4934395;29;20054;-67
2022/09/30 11:06:32;;;;;;;;;;;14.70;99.90;;;;;;4934411;29;19919;-68
2022/09/30 11:09:20;;;;;;;;;;;14.70;99.90;;;;;;4934742;29;20058;-67
2022/09/30 11:11:56;;;;;;;;;;;14.80;99.90;;;;;;4934984;29;19911;-67
2022/09/30 11:14:40;;;;;;;;;;;14.80;99.90;;;;;;4934865;29;19966;-67
2022/09/30 11:17:22;;;;;;;;;;;14.80;99.90;;;;;;4934086;29;19921;-66
2022/09/30 11:19:51;;;;;;;;;;;14.80;99.90;;;;;;4918050;29;19926;-68
2022/09/30 11:22:31;;;;;;;;;;;14.90;99.90;;;;;;4915281;29;19911;-66
2022/09/30 11:24:58;;;;;;;;;;;14.90;99.90;;;;;;4915834;29;20356;-68
2022/09/30 11:27:30;;;;;;;;;;;14.90;99.90;;;;;;4914906;29;19911;-67
2022/09/30 11:30:15;;;;;;;;;;;14.90;99.90;;;;;;4917622;29;19917;-67
2022/09/30 11:33:00;;;;;;;;;;;14.90;99.90;;;;;;4919506;29;19911;-68
2022/09/30 11:35:36;;;;;;;;;;;14.90;99.90;;;;;;4918927;29;19922;-67
2022/09/30 11:38:05;;;;;;;;;;;14.90;99.90;;;;;;4919152;29;19917;-67
2022/09/30 11:40:32;;;;;;;;;;;14.90;99.90;;;;;;4919459;29;19912;-67
2022/09/30 11:43:08;;;;;;;;;;;14.80;99.90;;;;;;4919438;29;19946;-67
2022/09/30 11:45:40;;;;;;;;;;;14.80;99.90;;;;;;4918889;29;20046;-68
2022/09/30 11:48:25;;;;;;;;;;;14.80;99.90;;;;;;4919291;29;19991;-69
2022/09/30 11:51:02;;;;;;;;;;;14.80;99.90;;;;;;4919386;29;19927;-67
2022/09/30 11:53:29;;;;;;;;;;;14.70;99.90;;;;;;4918464;29;19976;-67
2022/09/30 11:55:58;;;;;;;;;;;14.70;99.90;;;;;;4918557;29;19962;-67
2022/09/30 11:58:32;;;;;;;;;;;14.60;99.90;;;;;;4918996;29;19922;-68
2022/09/30 12:01:06;;;;;;;;;;;14.60;99.90;;;;;;4918849;29;19930;-70
2022/09/30 12:03:39;;;;;;;;;;;14.60;99.90;;;;;;4918996;29;20321;-68
2022/09/30 12:06:24;;;;;;;;;;;14.60;99.90;;;;;;4932439;29;19923;-68
2022/09/30 12:08:58;;;;;;;;;;;14.60;99.90;;;;;;4936952;29;20224;-68
2022/09/30 12:11:45;;;;;;;;;;;14.60;99.90;;;;;;4937679;29;19934;-70
2022/09/30 12:14:17;;;;;;;;;;;14.60;99.90;;;;;;4929065;29;19915;-71
2022/09/30 12:16:45;;;;;;;;;;;14.50;99.90;;;;;;4937487;29;19970;-70
2022/09/30 12:19:19;;;;;;;;;;;14.50;99.90;;;;;;4937493;29;19911;-69
2022/09/30 12:21:52;;;;;;;;;;;14.50;99.90;;;;;;4937612;29;19915;-73
2022/09/30 12:24:28;;;;;;;;;;;14.50;99.90;;;;;;4935580;29;19926;-68
2022/09/30 12:26:55;;;;;;;;;;;14.50;99.90;;;;;;4935453;29;19922;-72
2022/09/30 12:32:35;;;;;;;;;;;14.60;99.90;;;;;;4935805;29;19966;-68
2022/09/30 12:35:07;;;;;;;;;;;14.50;99.90;;;;;;4935450;29;20007;-70
2022/09/30 12:37:36;;;;;;;;;;;14.50;99.90;;;;;;4934851;29;20005;-70
2022/09/30 12:40:21;;;;;;;;;;;14.40;99.90;;;;;;4935313;29;19922;-73
2022/09/30 12:42:48;;;;;;;;;;;14.40;99.90;;;;;;4934696;29;19914;-71
2022/09/30 12:45:21;;;;;;;;;;;14.40;99.90;;;;;;4933706;29;20037;-69
2022/09/30 12:47:49;;;;;;;;;;;14.40;99.90;;;;;;4934926;29;20473;-70
2022/09/30 12:50:21;;;;;;;;;;;14.40;99.90;;;;;;4934909;29;19925;-69
2022/09/30 12:52:48;;;;;;;;;;;14.40;99.90;;;;;;4934814;29;19915;-74
2022/09/30 12:55:18;;;;;;;;;;;14.30;99.90;;;;;;4933420;29;20367;-67
2022/09/30 12:57:45;;;;;;;;;;;14.30;99.90;;;;;;4934711;29;19919;-67
2022/09/30 13:00:17;;;;;;;;;;;14.40;99.90;;;;;;4935061;29;19915;-73
2022/09/30 13:02:46;;;;;;;;;;;14.40;99.90;;;;;;4934620;29;20582;-67
2022/09/30 13:05:32;;;;;;;;;;;14.50;99.90;;;;;;4934260;29;19927;-69
2022/09/30 13:08:04;;;;;;;;;;;14.50;99.90;;;;;;4934745;29;19922;-67
2022/09/30 13:10:32;;;;;;;;;;;14.50;99.90;;;;;;4918638;29;19915;-67
2022/09/30 13:13:17;;;;;;;;;;;14.50;99.90;;;;;;4914814;29;19915;-67
2022/09/30 13:15:45;;;;;;;;;;;14.50;99.90;;;;;;4915166;29;20248;-67
2022/09/30 13:18:28;;;;;;;;;;;14.50;99.90;;;;;;4915849;29;20391;-73
2022/09/30 13:21:14;;;;;;;;;;;14.50;99.90;;;;;;4916005;29;19915;-71
2022/09/30 13:23:42;;;;;;;;;;;14.40;99.90;;;;;;4919039;29;19918;-68
2022/09/30 13:26:27;;;;;;;;;;;14.40;99.90;;;;;;4915520;29;20004;-68
2022/09/30 13:29:13;;;;;;;;;;;14.40;99.90;;;;;;4915302;29;19918;-67
2022/09/30 13:31:49;;;;;;;;;;;14.50;99.90;;;;;;4915384;29;19915;-68
2022/09/30 13:34:32;;;;;;;;;;;14.50;99.90;;;;;;4915616;29;19991;-69
2022/09/30 13:37:00;;;;;;;;;;;14.40;99.90;;;;;;4915004;29;19915;-70
2022/09/30 13:39:43;;;;;;;;;;;14.40;99.90;;;;;;4925642;29;19919;-68
2022/09/30 13:42:12;;;;;;;;;;;14.40;99.90;;;;;;4933357;29;19919;-70
2022/09/30 13:44:57;;;;;;;;;;;14.40;99.90;;;;;;4934060;29;19926;-70
2022/09/30 13:47:32;;;;;;;;;;;14.30;99.90;;;;;;4933338;29;19914;-69
2022/09/30 13:50:09;;;;;;;;;;;14.30;99.90;;;;;;4934151;29;19966;-68
2022/09/30 13:52:40;;;;;;;;;;;14.30;99.90;;;;;;4933061;29;19918;-67
2022/09/30 13:55:12;;;;;;;;;;;14.30;99.90;;;;;;4933268;29;19954;-67
2022/09/30 13:57:59;;;;;;;;;;;14.40;99.90;;;;;;4934092;29;20354;-69
2022/09/30 14:00:29;;;;;;;;;;;14.40;99.90;;;;;;4933768;29;19925;-70
2022/09/30 14:03:15;;;;;;;;;;;14.40;99.90;;;;;;4935354;29;19918;-71
2022/09/30 14:05:42;;;;;;;;;;;14.50;99.90;;;;;;4934092;29;19919;-70
2022/09/30 14:08:19;;;;;;;;;;;14.50;99.90;;;;;;4934799;29;19941;-69
2022/09/30 14:10:45;;;;;;;;;;;14.50;99.90;;;;;;4935252;29;19921;-72
2022/09/30 14:13:15;;;;;;;;;;;14.50;99.90;;;;;;4935749;29;19918;-70
2022/09/30 14:15:48;;;;;;;;;;;14.40;99.90;;;;;;4936056;29;19914;-68
2022/09/30 14:18:33;;;;;;;;;;;14.20;99.90;;;;;;4935620;29;20453;-70
2022/09/30 14:21:19;;;;;;;;;;;13.70;99.90;;;;;;4935523;29;19970;-71
2022/09/30 14:23:55;;;;;;;;;;;13.40;99.90;;;;;;4935368;29;19914;-66
2022/09/30 14:26:25;;;;;;;;;;;13.30;99.90;;;;;;4935255;29;20355;-67
2022/09/30 14:29:05;;;;;;;;;;;13.30;99.90;;;;;;4935219;29;20021;-69
2022/09/30 14:31:32;;;;;;;;;;;13.30;99.90;;;;;;4935336;29;20418;-67
2022/09/30 14:33:59;;;;;;;;;;;13.20;99.90;;;;;;4935239;29;19911;-68
2022/09/30 14:36:26;;;;;;;;;;;13.00;99.90;;;;;;4933771;29;19925;-69
2022/09/30 14:38:56;;;;;;;;;;;12.90;99.90;;;;;;4935038;29;19953;-71
2022/09/30 14:41:23;;;;;;;;;;;12.80;99.90;;;;;;4934994;29;19954;-69
2022/09/30 14:43:55;;;;;;;;;;;12.80;99.90;;;;;;4935156;29;19911;-69